| time (UTC) | temp F | wind direction | speed MPH | gust MPH | rain 1hr in | rain 24hr in | rain mn in | humidity % | barometer mb |
| 20260510090723 | 51 | 18 | 4.0 | 9.0 | 0.00 | 0.00 | 0.00 | 15 | 1020.5 |
| 20260510090218 | 52 | 18 | 4.0 | 9.0 | 0.00 | 0.00 | 0.00 | 12 | 1020.5 |
| 20260510085716 | 53 | 18 | 4.0 | 9.0 | 0.00 | 0.00 | 0.00 | 12 | 1020.5 |
| 20260510085230 | 53 | 13 | 4.0 | 8.0 | 0.00 | 0.00 | 0.00 | 13 | 1020.5 |
| 20260510084744 | 53 | 13 | 6.0 | 8.0 | 0.00 | 0.00 | 0.00 | 13 | 1020.5 |
| 20260510084217 | 53 | 5 | 5.0 | 8.0 | 0.00 | 0.00 | 0.00 | 12 | 1020.4 |
| 20260510083731 | 50 | 5 | 5.0 | 8.0 | 0.00 | 0.00 | 0.00 | 15 | 1020.4 |
| 20260510083225 | 50 | 5 | 4.0 | 6.0 | 0.00 | 0.00 | 0.00 | 16 | 1020.4 |
| 20260510082719 | 49 | 5 | 4.0 | 6.0 | 0.00 | 0.00 | 0.00 | 18 | 1020.5 |
| 20260510082253 | 49 | 5 | 4.0 | 5.0 | 0.00 | 0.00 | 0.00 | 17 | 1020.5 |
| 20260510081746 | 49 | 5 | 2.0 | 5.0 | 0.00 | 0.00 | 0.00 | 18 | 1020.5 |
| 20260510081225 | 50 | 5 | 2.0 | 6.0 | 0.00 | 0.00 | 0.00 | 17 | 1020.4 |
| 20260510080718 | 50 | 5 | 4.0 | 6.0 | 0.00 | 0.00 | 0.00 | 16 | 1020.4 |
| 20260510080254 | 50 | 5 | 2.0 | 5.0 | 0.00 | 0.00 | 0.00 | 15 | 1020.5 |
| 20260510075726 | 51 | 5 | 3.0 | 8.0 | 0.00 | 0.00 | 0.00 | 14 | 1020.5 |
| 20260510075220 | 51 | 5 | 2.0 | 8.0 | 0.00 | 0.00 | 0.00 | 13 | 1020.6 |
| 20260510074715 | 52 | 5 | 5.0 | 6.0 | 0.00 | 0.00 | 0.00 | 12 | 1020.6 |
| 20260510074227 | 51 | 5 | 5.0 | 6.0 | 0.00 | 0.00 | 0.00 | 13 | 1020.5 |
| 20260510073721 | 51 | 5 | 4.0 | 6.0 | 0.00 | 0.00 | 0.00 | 14 | 1020.5 |
| 20260510073219 | 49 | 5 | 4.0 | 4.0 | 0.00 | 0.00 | 0.00 | 16 | 1020.5 |
| 20260510072714 | 50 | 5 | 2.0 | 3.0 | 0.00 | 0.00 | 0.00 | 17 | 1020.5 |
| 20260510072227 | 52 | 5 | 1.0 | 2.0 | 0.00 | 0.00 | 0.00 | 17 | 1020.5 |
| 20260510071721 | 53 | 5 | 1.0 | 5.0 | 0.00 | 0.00 | 0.00 | 15 | 1020.5 |
| 20260510071216 | 54 | 5 | 1.0 | 5.0 | 0.00 | 0.00 | 0.00 | 12 | 1020.4 |
| 20260510070729 | 55 | 5 | 4.0 | 6.0 | 0.00 | 0.00 | 0.00 | 9 | 1020.3 |
| 20260510070225 | 55 | 5 | 3.0 | 6.0 | 0.00 | 0.00 | 0.00 | 10 | 1020.2 |
| 20260510065718 | 54 | 5 | 4.0 | 5.0 | 0.00 | 0.00 | 0.00 | 12 | 1020.1 |
| 20260510065217 | 56 | 5 | 1.0 | 3.0 | 0.00 | 0.00 | 0.00 | 11 | 1020.0 |
| 20260510064730 | 55 | 5 | 1.0 | 4.0 | 0.00 | 0.00 | 0.00 | 12 | 1019.9 |
| 20260510064224 | 55 | 5 | 2.0 | 4.0 | 0.00 | 0.00 | 0.00 | 12 | 1019.8 |
| 20260510063213 | 54 | 5 | 0.0 | 2.0 | 0.00 | 0.00 | 0.00 | 14 | 1019.8 |
| 20260510062726 | 54 | 5 | 0.0 | 3.0 | 0.00 | 0.00 | 0.00 | 14 | 1019.7 |
| 20260510062220 | 55 | 5 | 0.0 | 3.0 | 0.00 | 0.00 | 0.00 | 12 | 1019.6 |
| 20260510061718 | 57 | 5 | 1.0 | 5.0 | 0.00 | 0.00 | 0.00 | 11 | 1019.6 |
| 20260510061231 | 57 | 5 | 3.0 | 5.0 | 0.00 | 0.00 | 0.00 | 9 | 1019.6 |
| 20260510060745 | 58 | 5 | 2.0 | 9.0 | 0.00 | 0.00 | 0.00 | 9 | 1019.7 |
| 20260510060240 | 60 | 5 | 3.0 | 10.0 | 0.00 | 0.00 | 0.00 | 9 | 1019.6 |
| 20260510055732 | 59 | 5 | 6.0 | 10.0 | 0.00 | 0.00 | 0.00 | 8 | 1019.5 |
| 20260510055226 | 60 | 5 | 4.0 | 8.0 | 0.00 | 0.00 | 0.00 | 8 | 1019.5 |
| 20260510054721 | 59 | 5 | 3.0 | 8.0 | 0.00 | 0.00 | 0.00 | 9 | 1019.5 |
| 20260510054214 | 58 | 5 | 0.0 | 4.0 | 0.00 | 0.00 | 0.00 | 13 | 1019.5 |
| 20260510053748 | 58 | 5 | 2.0 | 4.0 | 0.00 | 0.00 | 0.00 | 8 | 1019.4 |
| 20260510053242 | 59 | 5 | 1.0 | 6.0 | 0.00 | 0.00 | 0.00 | 10 | 1019.4 |
| 20260510052718 | 60 | 5 | 4.0 | 6.0 | 0.00 | 0.00 | 0.00 | 8 | 1019.3 |
| 20260510052252 | 58 | 5 | 3.0 | 5.0 | 0.00 | 0.00 | 0.00 | 9 | 1019.3 |
| 20260510051724 | 58 | 5 | 1.0 | 9.0 | 0.00 | 0.00 | 0.00 | 10 | 1019.3 |
| 20260510051218 | 59 | 5 | 1.0 | 9.0 | 0.00 | 0.00 | 0.00 | 10 | 1019.2 |
| 20260510050732 | 58 | 5 | 1.0 | 6.0 | 0.00 | 0.00 | 0.00 | 10 | 1019.2 |
| 20260510050247 | 58 | 5 | 2.0 | 6.0 | 0.00 | 0.00 | 0.00 | 9 | 1019.3 |
| 20260510045719 | 58 | 5 | 3.0 | 5.0 | 0.00 | 0.00 | 0.00 | 9 | 1019.2 |
| 20260510045213 | 58 | 5 | 3.0 | 5.0 | 0.00 | 0.00 | 0.00 | 9 | 1019.3 |
| 20260510044747 | 58 | 5 | 2.0 | 5.0 | 0.00 | 0.00 | 0.00 | 9 | 1019.3 |
| 20260510044220 | 59 | 5 | 3.0 | 5.0 | 0.00 | 0.00 | 0.00 | 7 | 1019.2 |
| 20260510043718 | 59 | 5 | 3.0 | 5.0 | 0.00 | 0.00 | 0.00 | 7 | 1019.2 |
| 20260510043232 | 59 | 5 | 4.0 | 5.0 | 0.00 | 0.00 | 0.00 | 6 | 1019.2 |
| 20260510042726 | 58 | 5 | 3.0 | 4.0 | 0.00 | 0.00 | 0.00 | 8 | 1019.2 |
| 20260510042220 | 59 | 5 | 2.0 | 10.0 | 0.00 | 0.00 | 0.00 | 7 | 1019.2 |
| 20260510041713 | 61 | 5 | 2.0 | 10.0 | 0.00 | 0.00 | 0.00 | 7 | 1019.1 |
| 20260510041248 | 61 | 344 | 6.0 | 10.0 | 0.00 | 0.00 | 0.00 | 5 | 1019.1 |
| 20260510040721 | 62 | 344 | 6.0 | 10.0 | 0.00 | 0.00 | 0.00 | 5 | 1019.1 |
| 20260510040216 | 60 | 342 | 6.0 | 9.0 | 0.00 | 0.00 | 0.00 | 6 | 1019.1 |
| 20260510035713 | 58 | 342 | 5.0 | 8.0 | 0.00 | 0.00 | 0.00 | 7 | 1019.0 |
| 20260510035227 | 57 | 342 | 3.0 | 5.0 | 0.00 | 0.00 | 0.00 | 7 | 1019.0 |
| 20260510034721 | 58 | 342 | 1.0 | 8.0 | 0.00 | 0.00 | 0.00 | 7 | 1018.8 |
| 20260510034236 | 59 | 342 | 4.0 | 9.0 | 0.00 | 0.00 | 0.00 | 6 | 1018.8 |
| 20260510033730 | 60 | 342 | 6.0 | 9.0 | 0.00 | 0.00 | 0.00 | 5 | 1018.8 |
| 20260510033244 | 61 | 342 | 4.0 | 10.0 | 0.00 | 0.00 | 0.00 | 6 | 1018.7 |
| 20260510032737 | 62 | 342 | 7.0 | 10.0 | 0.00 | 0.00 | 0.00 | 4 | 1018.6 |
| 20260510032231 | 61 | 337 | 7.0 | 9.0 | 0.00 | 0.00 | 0.00 | 5 | 1018.5 |
| 20260510031724 | 59 | 334 | 5.0 | 9.0 | 0.00 | 0.00 | 0.00 | 7 | 1018.5 |
| 20260510031218 | 60 | 334 | 6.0 | 9.0 | 0.00 | 0.00 | 0.00 | 7 | 1018.5 |
| 20260510030716 | 59 | 334 | 4.0 | 6.0 | 0.00 | 0.00 | 0.00 | 8 | 1018.5 |
| 20260510030232 | 59 | 334 | 3.0 | 5.0 | 0.00 | 0.00 | 0.00 | 8 | 1018.4 |
| 20260510025746 | 60 | 334 | 3.0 | 5.0 | 0.00 | 0.00 | 0.00 | 8 | 1018.3 |
| 20260510025219 | 61 | 334 | 3.0 | 8.0 | 0.00 | 0.00 | 0.00 | 7 | 1018.3 |
| 20260510024713 | 62 | 334 | 4.0 | 9.0 | 0.00 | 0.00 | 0.00 | 5 | 1018.3 |
| 20260510024227 | 62 | 334 | 6.0 | 9.0 | 0.00 | 0.00 | 0.00 | 3 | 1018.3 |
| 20260510023721 | 63 | 334 | 5.0 | 8.0 | 0.00 | 0.00 | 0.00 | 4 | 1018.3 |
| 20260510023214 | 63 | 334 | 4.0 | 6.0 | 0.00 | 0.00 | 0.00 | 5 | 1018.2 |
| 20260510022727 | 64 | 334 | 4.0 | 6.0 | 0.00 | 0.00 | 0.00 | 4 | 1018.2 |
| 20260510022224 | 64 | 334 | 3.0 | 8.0 | 0.00 | 0.00 | 0.00 | 5 | 1018.1 |
| 20260510021718 | 65 | 334 | 4.0 | 9.0 | 0.00 | 0.00 | 0.00 | 5 | 1018.1 |
| 20260510021252 | 66 | 334 | 4.0 | 12.0 | 0.00 | 0.00 | 0.00 | 4 | 1018.1 |
| 20260510020725 | 67 | 333 | 4.0 | 12.0 | 0.00 | 0.00 | 0.00 | 4 | 1018.1 |
| 20260510020220 | 68 | 329 | 5.0 | 10.0 | 0.00 | 0.00 | 0.00 | 4 | 1018.1 |
| 20260510015734 | 69 | 329 | 6.0 | 10.0 | 0.00 | 0.00 | 0.00 | 3 | 1018.0 |
| 20260510015229 | 69 | 329 | 5.0 | 11.0 | 0.00 | 0.00 | 0.00 | 2 | 1018.0 |
| 20260510014742 | 70 | 329 | 5.0 | 14.0 | 0.00 | 0.00 | 0.00 | 2 | 1018.0 |
| 20260510014235 | 70 | 328 | 7.0 | 14.0 | 0.00 | 0.00 | 0.00 | 2 | 1018.0 |
| 20260510013728 | 70 | 323 | 7.0 | 12.0 | 0.00 | 0.00 | 0.00 | 2 | 1018.0 |
| 20260510013242 | 71 | 319 | 5.0 | 13.0 | 0.00 | 0.00 | 0.00 | 2 | 1017.9 |
| 20260510012719 | 71 | 317 | 6.0 | 13.0 | 0.00 | 0.00 | 0.00 | 2 | 1017.9 |
| 20260510012213 | 71 | 317 | 7.0 | 13.0 | 0.00 | 0.00 | 0.00 | 2 | 1018.0 |
| 20260510011727 | 72 | 319 | 7.0 | 14.0 | 0.00 | 0.00 | 0.00 | 1 | 1018.0 |
| 20260510011220 | 72 | 321 | 7.0 | 15.0 | 0.00 | 0.00 | 0.00 | 2 | 1018.0 |
| 20260510010714 | 72 | 325 | 9.0 | 15.0 | 0.00 | 0.00 | 0.00 | 1 | 1018.0 |
| 20260510010229 | 72 | 360 | 6.0 | 14.0 | 0.00 | 0.00 | 0.00 | 1 | 1018.0 |
| 20260510005723 | 73 | 322 | 8.0 | 17.0 | 0.00 | 0.00 | 0.00 | 1 | 1018.0 |
| 20260510005217 | 73 | 321 | 7.0 | 17.0 | 0.00 | 0.00 | 0.00 | 1 | 1018.0 |
| 20260510004735 | 73 | 312 | 6.0 | 15.0 | 0.00 | 0.00 | 0.00 | 1 | 1018.0 |
| 20260510004229 | 74 | 304 | 7.0 | 16.0 | 0.00 | 0.00 | 0.00 | 1 | 1018.0 |
| 20260510003722 | 74 | 290 | 10.0 | 16.0 | 0.00 | 0.00 | 0.00 | 1 | 1018.0 |
| 20260510003217 | 74 | 318 | 7.0 | 14.0 | 0.00 | 0.00 | 0.00 | 1 | 1017.9 |
| 20260510002730 | 74 | 323 | 6.0 | 17.0 | 0.00 | 0.00 | 0.00 | 1 | 1017.9 |
| 20260510002223 | 74 | 335 | 10.0 | 17.0 | 0.00 | 0.00 | 0.00 | 1 | 1017.9 |
| 20260510001716 | 74 | 315 | 7.0 | 15.0 | 0.00 | 0.00 | 0.00 | 1 | 1017.9 |
| 20260510001230 | 75 | 320 | 6.0 | 13.0 | 0.00 | 0.00 | 0.00 | 1 | 1017.9 |
| 20260510000728 | 75 | 318 | 7.0 | 13.0 | 0.00 | 0.00 | 0.00 | 1 | 1017.9 |
| 20260510000244 | 75 | 318 | 5.0 | 12.0 | 0.00 | 0.00 | 0.00 | 1 | 1017.9 |
| 20260509235736 | 75 | 317 | 6.0 | 12.0 | 0.00 | 0.00 | 0.00 | 1 | 1017.9 |
| 20260509235229 | 76 | 317 | 7.0 | 13.0 | 0.00 | 0.00 | 0.00 | 1 | 1017.8 |
| 20260509234722 | 76 | 311 | 8.0 | 13.0 | 0.00 | 0.00 | 0.00 | 1 | 1017.9 |
| 20260509234217 | 76 | 306 | 5.0 | 14.0 | 0.00 | 0.00 | 0.00 | 1 | 1017.8 |
| 20260509233730 | 76 | 302 | 6.0 | 14.0 | 0.00 | 0.00 | 0.00 | 1 | 1017.9 |
| 20260509233245 | 76 | 297 | 5.0 | 12.0 | 0.00 | 0.00 | 0.00 | 1 | 1017.9 |
| 20260509232716 | 76 | 301 | 7.0 | 16.0 | 0.00 | 0.00 | 0.00 | 1 | 1017.9 |
| 20260509232230 | 76 | 302 | 6.0 | 16.0 | 0.00 | 0.00 | 0.00 | 1 | 1017.9 |
| 20260509231723 | 75 | 290 | 8.0 | 16.0 | 0.00 | 0.00 | 0.00 | 1 | 1017.9 |
| 20260509231222 | 76 | 302 | 8.0 | 17.0 | 0.00 | 0.00 | 0.00 | 1 | 1018.0 |
| 20260509230715 | 76 | 305 | 7.0 | 17.0 | 0.00 | 0.00 | 0.00 | 1 | 1018.0 |
| 20260509230229 | 76 | 309 | 7.0 | 12.0 | 0.00 | 0.00 | 0.00 | 1 | 1018.1 |
| 20260509225723 | 77 | 311 | 7.0 | 15.0 | 0.00 | 0.00 | 0.00 | 1 | 1018.1 |
| 20260509225217 | 77 | 309 | 7.0 | 15.0 | 0.00 | 0.00 | 0.00 | 1 | 1018.1 |
| 20260509224731 | 76 | 318 | 4.0 | 13.0 | 0.00 | 0.00 | 0.00 | 1 | 1018.1 |
| 20260509224225 | 77 | 323 | 7.0 | 15.0 | 0.00 | 0.00 | 0.00 | 1 | 1018.1 |
| 20260509223739 | 77 | 319 | 9.0 | 15.0 | 0.00 | 0.00 | 0.00 | 1 | 1018.2 |
| 20260509223215 | 76 | 306 | 7.0 | 14.0 | 0.00 | 0.00 | 0.00 | 1 | 1018.2 |
| 20260509222729 | 77 | 317 | 6.0 | 14.0 | 0.00 | 0.00 | 0.00 | 1 | 1018.2 |
| 20260509222222 | 76 | 322 | 7.0 | 14.0 | 0.00 | 0.00 | 0.00 | 2 | 1018.2 |
| 20260509221715 | 76 | 319 | 10.0 | 14.0 | 0.00 | 0.00 | 0.00 | 1 | 1018.3 |
| 20260509221228 | 77 | 306 | 8.0 | 14.0 | 0.00 | 0.00 | 0.00 | 1 | 1018.3 |
| 20260509220721 | 77 | 305 | 7.0 | 14.0 | 0.00 | 0.00 | 0.00 | 1 | 1018.3 |
| 20260509220217 | 77 | 306 | 10.0 | 14.0 | 0.00 | 0.00 | 0.00 | 1 | 1018.3 |
| 20260509215714 | 76 | 313 | 2.0 | 17.0 | 0.00 | 0.00 | 0.00 | 1 | 1018.4 |
| 20260509215228 | 77 | 313 | 7.0 | 17.0 | 0.00 | 0.00 | 0.00 | 1 | 1018.5 |
| 20260509214723 | 77 | 312 | 10.0 | 17.0 | 0.00 | 0.00 | 0.00 | 1 | 1018.5 |
| 20260509214217 | 76 | 299 | 5.0 | 15.0 | 0.00 | 0.00 | 0.00 | 3 | 1018.5 |
| 20260509213731 | 77 | 298 | 8.0 | 15.0 | 0.00 | 0.00 | 0.00 | 1 | 1018.6 |
| 20260509213225 | 76 | 311 | 7.0 | 13.0 | 0.00 | 0.00 | 0.00 | 3 | 1018.6 |
| 20260509212719 | 75 | 298 | 6.0 | 15.0 | 0.00 | 0.00 | 0.00 | 1 | 1018.7 |
| 20260509212232 | 77 | 298 | 10.0 | 15.0 | 0.00 | 0.00 | 0.00 | 1 | 1018.8 |
| 20260509211746 | 76 | 317 | 8.0 | 14.0 | 0.00 | 0.00 | 0.00 | 3 | 1018.8 |
| 20260509211223 | 75 | 315 | 3.0 | 16.0 | 0.00 | 0.00 | 0.00 | 3 | 1018.8 |
| 20260509210717 | 76 | 316 | 7.0 | 16.0 | 0.00 | 0.00 | 0.00 | 1 | 1018.8 |
| 20260509210233 | 76 | 312 | 8.0 | 15.0 | 0.00 | 0.00 | 0.00 | 1 | 1018.8 |
| 20260509205726 | 76 | 322 | 7.0 | 13.0 | 0.00 | 0.00 | 0.00 | 4 | 1018.8 |
| 20260509205220 | 76 | 303 | 5.0 | 14.0 | 0.00 | 0.00 | 0.00 | 1 | 1018.9 |
| 20260509204715 | 77 | 297 | 7.0 | 14.0 | 0.00 | 0.00 | 0.00 | 1 | 1019.0 |
| 20260509204249 | 76 | 298 | 9.0 | 17.0 | 0.00 | 0.00 | 0.00 | 1 | 1019.0 |
| 20260509203722 | 75 | 308 | 6.0 | 17.0 | 0.00 | 0.00 | 0.00 | 1 | 1019.0 |
| 20260509203222 | 75 | 340 | 7.0 | 17.0 | 0.00 | 0.00 | 0.00 | 2 | 1019.0 |
| 20260509202716 | 75 | 329 | 6.0 | 12.0 | 0.00 | 0.00 | 0.00 | 4 | 1019.1 |
| 20260509202230 | 75 | 329 | 5.0 | 16.0 | 0.00 | 0.00 | 0.00 | 3 | 1019.2 |
| 20260509201724 | 76 | 328 | 8.0 | 16.0 | 0.00 | 0.00 | 0.00 | 2 | 1019.3 |
| 20260509201218 | 75 | 292 | 6.0 | 14.0 | 0.00 | 0.00 | 0.00 | 4 | 1019.3 |
| 20260509200732 | 75 | 323 | 7.0 | 14.0 | 0.00 | 0.00 | 0.00 | 3 | 1019.4 |
| 20260509200226 | 74 | 328 | 3.0 | 16.0 | 0.00 | 0.00 | 0.00 | 5 | 1019.4 |
| 20260509195719 | 74 | 327 | 9.0 | 18.0 | 0.00 | 0.00 | 0.00 | 5 | 1019.5 |
| 20260509195217 | 75 | 325 | 10.0 | 18.0 | 0.00 | 0.00 | 0.00 | 5 | 1019.4 |
| 20260509194731 | 75 | 302 | 7.0 | 15.0 | 0.00 | 0.00 | 0.00 | 3 | 1019.5 |
| 20260509194226 | 75 | 304 | 7.0 | 19.0 | 0.00 | 0.00 | 0.00 | 2 | 1019.5 |
| 20260509193719 | 75 | 305 | 10.0 | 19.0 | 0.00 | 0.00 | 0.00 | 3 | 1019.5 |
| 20260509193254 | 75 | 300 | 8.0 | 18.0 | 0.00 | 0.00 | 0.00 | 2 | 1019.6 |
| 20260509192726 | 75 | 300 | 10.0 | 18.0 | 0.00 | 0.00 | 0.00 | 5 | 1019.6 |
| 20260509192221 | 74 | 306 | 5.0 | 16.0 | 0.00 | 0.00 | 0.00 | 4 | 1019.6 |
| 20260509191714 | 76 | 297 | 9.0 | 16.0 | 0.00 | 0.00 | 0.00 | 3 | 1019.6 |
| 20260509191232 | 75 | 297 | 8.0 | 11.0 | 0.00 | 0.00 | 0.00 | 4 | 1019.5 |
| 20260509190726 | 74 | 292 | 2.0 | 10.0 | 0.00 | 0.00 | 0.00 | 6 | 1019.5 |
| 20260509190222 | 75 | 292 | 6.0 | 10.0 | 0.00 | 0.00 | 0.00 | 8 | 1019.5 |
| 20260509185735 | 72 | 292 | 5.0 | 18.0 | 0.00 | 0.00 | 0.00 | 6 | 1019.5 |
| 20260509185227 | 74 | 289 | 3.0 | 18.0 | 0.00 | 0.00 | 0.00 | 7 | 1019.6 |
| 20260509184741 | 74 | 294 | 8.0 | 13.0 | 0.00 | 0.00 | 0.00 | 5 | 1019.6 |
| 20260509184254 | 73 | 312 | 5.0 | 10.0 | 0.00 | 0.00 | 0.00 | 8 | 1019.7 |
| 20260509183727 | 74 | 313 | 5.0 | 9.0 | 0.00 | 0.00 | 0.00 | 8 | 1019.7 |
| 20260509183221 | 73 | 313 | 4.0 | 11.0 | 0.00 | 0.00 | 0.00 | 8 | 1019.7 |
| 20260509182715 | 74 | 313 | 5.0 | 12.0 | 0.00 | 0.00 | 0.00 | 7 | 1019.8 |
| 20260509182233 | 73 | 313 | 6.0 | 13.0 | 0.00 | 0.00 | 0.00 | 8 | 1019.8 |
| 20260509181727 | 73 | 309 | 6.0 | 13.0 | 0.00 | 0.00 | 0.00 | 7 | 1019.7 |
| 20260509181221 | 73 | 333 | 5.0 | 10.0 | 0.00 | 0.00 | 0.00 | 9 | 1019.8 |
| 20260509180715 | 71 | 333 | 6.0 | 10.0 | 0.00 | 0.00 | 0.00 | 9 | 1019.8 |
| 20260509180230 | 70 | 333 | 3.0 | 11.0 | 0.00 | 0.00 | 0.00 | 8 | 1019.9 |
| 20260509175724 | 71 | 333 | 6.0 | 11.0 | 0.00 | 0.00 | 0.00 | 8 | 1019.8 |
| 20260509175217 | 71 | 342 | 4.0 | 10.0 | 0.00 | 0.00 | 0.00 | 8 | 1019.7 |
| 20260509174715 | 72 | 342 | 5.0 | 9.0 | 0.00 | 0.00 | 0.00 | 9 | 1019.8 |
| 20260509174250 | 71 | 342 | 4.0 | 6.0 | 0.00 | 0.00 | 0.00 | 9 | 1019.8 |
| 20260509173216 | 72 | 342 | 5.0 | 14.0 | 0.00 | 0.00 | 0.00 | 9 | 1020.0 |
| 20260509172730 | 72 | 342 | 7.0 | 14.0 | 0.00 | 0.00 | 0.00 | 12 | 1020.0 |
| 20260509172224 | 70 | 360 | 3.0 | 11.0 | 0.00 | 0.00 | 0.00 | 11 | 1020.0 |
| 20260509171738 | 69 | 360 | 4.0 | 11.0 | 0.00 | 0.00 | 0.00 | 11 | 1020.1 |
| 20260509171231 | 70 | 360 | 6.0 | 11.0 | 0.00 | 0.00 | 0.00 | 11 | 1020.1 |
| 20260509170725 | 72 | 26 | 7.0 | 10.0 | 0.00 | 0.00 | 0.00 | 8 | 1020.1 |
| 20260509170221 | 71 | 46 | 0.0 | 6.0 | 0.00 | 0.00 | 0.00 | 11 | 1020.0 |
| 20260509165717 | 70 | 46 | 2.0 | 6.0 | 0.00 | 0.00 | 0.00 | 12 | 1020.0 |
| 20260509165231 | 69 | 46 | 3.0 | 12.0 | 0.00 | 0.00 | 0.00 | 12 | 1020.1 |
| 20260509164725 | 70 | 46 | 4.0 | 12.0 | 0.00 | 0.00 | 0.00 | 12 | 1020.1 |
| 20260509164219 | 69 | 47 | 2.0 | 9.0 | 0.00 | 0.00 | 0.00 | 12 | 1020.0 |
| 20260509163733 | 70 | 47 | 4.0 | 9.0 | 0.00 | 0.00 | 0.00 | 14 | 1020.0 |
| 20260509163227 | 70 | 47 | 3.0 | 7.0 | 0.00 | 0.00 | 0.00 | 13 | 1020.1 |
| 20260509162721 | 70 | 47 | 3.0 | 7.0 | 0.00 | 0.00 | 0.00 | 13 | 1020.1 |
| 20260509162219 | 69 | 47 | 4.0 | 7.0 | 0.00 | 0.00 | 0.00 | 14 | 1020.0 |
| 20260509161733 | 69 | 47 | 4.0 | 9.0 | 0.00 | 0.00 | 0.00 | 13 | 1020.1 |
| 20260509161227 | 69 | 47 | 5.0 | 9.0 | 0.00 | 0.00 | 0.00 | 14 | 1020.0 |
| 20260509160741 | 69 | 47 | 6.0 | 9.0 | 0.00 | 0.00 | 0.00 | 15 | 1020.1 |
| 20260509160235 | 69 | 47 | 6.0 | 9.0 | 0.00 | 0.00 | 0.00 | 15 | 1020.0 |
| 20260509155728 | 68 | 47 | 4.0 | 11.0 | 0.00 | 0.00 | 0.00 | 16 | 1020.0 |
| 20260509155222 | 68 | 47 | 7.0 | 11.0 | 0.00 | 0.00 | 0.00 | 16 | 1020.1 |
| 20260509154716 | 68 | 47 | 4.0 | 10.0 | 0.00 | 0.00 | 0.00 | 16 | 1020.2 |
| 20260509154230 | 68 | 47 | 4.0 | 10.0 | 0.00 | 0.00 | 0.00 | 19 | 1020.2 |
| 20260509153728 | 67 | 47 | 1.0 | 9.0 | 0.00 | 0.00 | 0.00 | 18 | 1020.2 |
| 20260509153222 | 67 | 47 | 5.0 | 9.0 | 0.00 | 0.00 | 0.00 | 16 | 1020.2 |
| 20260509152716 | 66 | 47 | 3.0 | 10.0 | 0.00 | 0.00 | 0.00 | 16 | 1020.2 |
| 20260509152230 | 66 | 47 | 6.0 | 10.0 | 0.00 | 0.00 | 0.00 | 19 | 1020.2 |
| 20260509151725 | 66 | 47 | 4.0 | 10.0 | 0.00 | 0.00 | 0.00 | 17 | 1020.0 |
| 20260509151219 | 66 | 47 | 6.0 | 9.0 | 0.00 | 0.00 | 0.00 | 17 | 1020.0 |
| 20260509150732 | 66 | 47 | 4.0 | 9.0 | 0.00 | 0.00 | 0.00 | 18 | 1019.9 |
| 20260509150228 | 65 | 47 | 6.0 | 11.0 | 0.00 | 0.00 | 0.00 | 19 | 1019.8 |
| 20260509145725 | 65 | 47 | 5.0 | 11.0 | 0.00 | 0.00 | 0.00 | 19 | 1019.9 |
| 20260509145219 | 64 | 58 | 6.0 | 11.0 | 0.00 | 0.00 | 0.00 | 22 | 1019.8 |
| 20260509144733 | 64 | 61 | 6.0 | 11.0 | 0.00 | 0.00 | 0.00 | 21 | 1019.8 |
| 20260509144227 | 64 | 81 | 5.0 | 10.0 | 0.00 | 0.00 | 0.00 | 22 | 1019.7 |
| 20260509143720 | 63 | 82 | 7.0 | 10.0 | 0.00 | 0.00 | 0.00 | 22 | 1019.7 |
| 20260509143215 | 63 | 96 | 5.0 | 10.0 | 0.00 | 0.00 | 0.00 | 21 | 1019.5 |
| 20260509142728 | 62 | 109 | 3.0 | 10.0 | 0.00 | 0.00 | 0.00 | 24 | 1019.4 |
| 20260509142253 | 62 | 109 | 6.0 | 10.0 | 0.00 | 0.00 | 0.00 | 23 | 1019.4 |
| 20260509141727 | 62 | 113 | 5.0 | 7.0 | 0.00 | 0.00 | 0.00 | 24 | 1019.5 |
| 20260509141221 | 61 | 114 | 3.0 | 7.0 | 0.00 | 0.00 | 0.00 | 24 | 1019.3 |
| 20260509140715 | 61 | 114 | 1.0 | 4.0 | 0.00 | 0.00 | 0.00 | 24 | 1019.3 |
| 20260509140230 | 59 | 114 | 1.0 | 3.0 | 0.00 | 0.00 | 0.00 | 29 | 1019.4 |
| 20260509135724 | 59 | 114 | 1.0 | 3.0 | 0.00 | 0.00 | 0.00 | 29 | 1019.4 |
| 20260509135223 | 58 | 113 | 0.0 | 6.0 | 0.00 | 0.00 | 0.00 | 29 | 1019.3 |
| 20260509134715 | 58 | 114 | 2.0 | 6.0 | 0.00 | 0.00 | 0.00 | 29 | 1019.3 |
| 20260509134228 | 58 | 114 | 3.0 | 6.0 | 0.00 | 0.00 | 0.00 | 28 | 1019.3 |
| 20260509133722 | 56 | 114 | 1.0 | 4.0 | 0.00 | 0.00 | 0.00 | 31 | 1019.1 |
| 20260509133216 | 54 | 114 | 2.0 | 3.0 | 0.00 | 0.00 | 0.00 | 34 | 1019.1 |
| 20260509132730 | 53 | 114 | 1.0 | 3.0 | 0.00 | 0.00 | 0.00 | 36 | 1019.1 |
| 20260509132224 | 54 | 114 | 0.0 | 6.0 | 0.00 | 0.00 | 0.00 | 37 | 1019.0 |
| 20260509131717 | 54 | 114 | 2.0 | 6.0 | 0.00 | 0.00 | 0.00 | 32 | 1019.0 |
| 20260509131216 | 51 | 114 | 1.0 | 4.0 | 0.00 | 0.00 | 0.00 | 38 | 1018.9 |
| 20260509130729 | 52 | 114 | 0.0 | 6.0 | 0.00 | 0.00 | 0.00 | 35 | 1018.8 |
| 20260509130225 | 51 | 114 | 1.0 | 6.0 | 0.00 | 0.00 | 0.00 | 36 | 1018.8 |
| 20260509125718 | 50 | 114 | 2.0 | 6.0 | 0.00 | 0.00 | 0.00 | 37 | 1018.6 |
| 20260509125233 | 51 | 114 | 0.0 | 3.0 | 0.00 | 0.00 | 0.00 | 37 | 1018.6 |
| 20260509124727 | 51 | 114 | 1.0 | 3.0 | 0.00 | 0.00 | 0.00 | 36 | 1018.5 |
| 20260509124240 | 50 | 114 | 0.0 | 3.0 | 0.00 | 0.00 | 0.00 | 36 | 1018.4 |
| 20260509123733 | 51 | 114 | 1.0 | 4.0 | 0.00 | 0.00 | 0.00 | 35 | 1018.3 |
| 20260509123231 | 52 | 114 | 3.0 | 6.0 | 0.00 | 0.00 | 0.00 | 31 | 1018.2 |
| 20260509122725 | 51 | 114 | 1.0 | 7.0 | 0.00 | 0.00 | 0.00 | 32 | 1018.1 |
| 20260509122219 | 51 | 114 | 4.0 | 7.0 | 0.00 | 0.00 | 0.00 | 34 | 1018.0 |
| 20260509121733 | 50 | 114 | 3.0 | 4.0 | 0.00 | 0.00 | 0.00 | 36 | 1017.9 |
| 20260509121227 | 51 | 114 | 1.0 | 7.0 | 0.00 | 0.00 | 0.00 | 33 | 1017.9 |
| 20260509120721 | 52 | 114 | 1.0 | 7.0 | 0.00 | 0.00 | 0.00 | 32 | 1017.9 |
| 20260509120217 | 52 | 114 | 3.0 | 7.0 | 0.00 | 0.00 | 0.00 | 32 | 1017.7 |
| 20260509115751 | 54 | 114 | 1.0 | 6.0 | 0.00 | 0.00 | 0.00 | 29 | 1017.7 |
| 20260509115224 | 53 | 114 | 2.0 | 4.0 | 0.00 | 0.00 | 0.00 | 29 | 1017.6 |
| 20260509114722 | 54 | 114 | 2.0 | 6.0 | 0.00 | 0.00 | 0.00 | 28 | 1017.6 |
| 20260509114238 | 53 | 114 | 2.0 | 6.0 | 0.00 | 0.00 | 0.00 | 30 | 1017.4 |
| 20260509113731 | 53 | 114 | 2.0 | 7.0 | 0.00 | 0.00 | 0.00 | 31 | 1017.4 |
| 20260509113245 | 53 | 114 | 3.0 | 7.0 | 0.00 | 0.00 | 0.00 | 29 | 1017.4 |
| 20260509112718 | 53 | 114 | 3.0 | 7.0 | 0.00 | 0.00 | 0.00 | 31 | 1017.3 |
| 20260509112233 | 54 | 114 | 2.0 | 4.0 | 0.00 | 0.00 | 0.00 | 27 | 1017.3 |
| 20260509111221 | 55 | 114 | 2.0 | 7.0 | 0.00 | 0.00 | 0.00 | 26 | 1017.1 |
| 20260509110719 | 54 | 114 | 2.0 | 7.0 | 0.00 | 0.00 | 0.00 | 27 | 1016.9 |
| 20260509110234 | 55 | 114 | 5.0 | 9.0 | 0.00 | 0.00 | 0.00 | 26 | 1016.7 |
| 20260509105747 | 56 | 114 | 3.0 | 9.0 | 0.00 | 0.00 | 0.00 | 27 | 1016.8 |
| 20260509105219 | 56 | 114 | 6.0 | 10.0 | 0.00 | 0.00 | 0.00 | 26 | 1016.7 |
| 20260509104733 | 56 | 114 | 6.0 | 11.0 | 0.00 | 0.00 | 0.00 | 26 | 1016.8 |
| 20260509104226 | 56 | 113 | 9.0 | 11.0 | 0.00 | 0.00 | 0.00 | 25 | 1016.7 |
| 20260509103720 | 55 | 113 | 6.0 | 9.0 | 0.00 | 0.00 | 0.00 | 27 | 1016.7 |
| 20260509103214 | 55 | 113 | 5.0 | 8.0 | 0.00 | 0.00 | 0.00 | 28 | 1016.7 |
| 20260509102728 | 56 | 113 | 3.0 | 8.0 | 0.00 | 0.00 | 0.00 | 27 | 1016.7 |
| 20260509102226 | 56 | 113 | 4.0 | 8.0 | 0.00 | 0.00 | 0.00 | 25 | 1016.7 |
| 20260509101720 | 55 | 113 | 4.0 | 6.0 | 0.00 | 0.00 | 0.00 | 27 | 1016.7 |
| 20260509101234 | 55 | 113 | 3.0 | 4.0 | 0.00 | 0.00 | 0.00 | 26 | 1016.6 |
| 20260509100727 | 56 | 113 | 3.0 | 6.0 | 0.00 | 0.00 | 0.00 | 26 | 1016.6 |
| 20260509100223 | 55 | 113 | 4.0 | 6.0 | 0.00 | 0.00 | 0.00 | 27 | 1016.7 |
| 20260509095716 | 55 | 113 | 3.0 | 4.0 | 0.00 | 0.00 | 0.00 | 25 | 1016.6 |
| 20260509095231 | 55 | 113 | 3.0 | 4.0 | 0.00 | 0.00 | 0.00 | 25 | 1016.6 |
| 20260509094745 | 55 | 113 | 3.0 | 8.0 | 0.00 | 0.00 | 0.00 | 27 | 1016.6 |
| 20260509094222 | 55 | 113 | 2.0 | 10.0 | 0.00 | 0.00 | 0.00 | 26 | 1016.6 |
| 20260509093716 | 57 | 113 | 5.0 | 11.0 | 0.00 | 0.00 | 0.00 | 24 | 1016.6 |
| 20260509093229 | 58 | 113 | 8.0 | 11.0 | 0.00 | 0.00 | 0.00 | 23 | 1016.6 |
| 20260509092723 | 58 | 117 | 3.0 | 9.0 | 0.00 | 0.00 | 0.00 | 23 | 1016.4 |
| 20260509092217 | 57 | 117 | 7.0 | 12.0 | 0.00 | 0.00 | 0.00 | 24 | 1016.2 |
| 20260509091731 | 57 | 117 | 8.0 | 13.0 | 0.00 | 0.00 | 0.00 | 24 | 1016.1 |
| 20260509091245 | 57 | 117 | 11.0 | 13.0 | 0.00 | 0.00 | 0.00 | 24 | 1016.0 |